Time;durP1;ratioP1;P1;durP2;ratioP2;P2;SDS_P1;SDS_P2;PMS_P1;PMS_P2;Temp;Humidity;BMP_temperature;BMP_pressure;BME280_temperature;BME280_humidity;BME280_pressure;Samples;Min_cycle;Max_cycle;Signal;HPM_P1;HPM_P2
2020/12/16 00:00:57;;;;;;;;;;;5.80;99.90;;;;;;5015109;28;19909;-76
2020/12/16 00:03:23;;;;;;;;;;;5.80;99.90;;;;;;5028107;28;20374;-75
2020/12/16 00:05:48;;;;;;;;;;;5.80;99.90;;;;;;5034975;28;19915;-75
2020/12/16 00:08:14;;;;;;;;;;;5.80;99.90;;;;;;5033801;28;19960;-75
2020/12/16 00:10:39;;;;;;;;;;;5.80;99.90;;;;;;5035102;28;19960;-75
2020/12/16 00:13:05;;;;;;;;;;;5.80;99.90;;;;;;5035508;28;19909;-75
2020/12/16 00:15:30;;;;;;;;;;;5.80;99.90;;;;;;5035056;28;19946;-76
2020/12/16 00:17:56;;;;;;;;;;;5.70;99.90;;;;;;5035579;28;19909;-75
2020/12/16 00:20:22;;;;;;;;;;;5.70;99.90;;;;;;5031512;28;20000;-74
2020/12/16 00:22:47;;;;;;;;;;;5.60;99.90;;;;;;5029602;28;19913;-75
2020/12/16 00:25:13;;;;;;;;;;;5.60;99.90;;;;;;5034616;28;20004;-73
2020/12/16 00:27:39;;;;;;;;;;;5.50;99.90;;;;;;5035398;28;19909;-75
2020/12/16 00:30:05;;;;;;;;;;;5.40;99.90;;;;;;5034646;28;20278;-75
2020/12/16 00:32:30;;;;;;;;;;;5.50;99.90;;;;;;5032263;28;19976;-75
2020/12/16 00:34:56;;;;;;;;;;;5.40;99.90;;;;;;5015975;28;20362;-76
2020/12/16 00:37:21;;;;;;;;;;;5.40;99.90;;;;;;5013383;28;19909;-75
2020/12/16 00:39:47;;;;;;;;;;;5.40;99.90;;;;;;5015118;28;19913;-75
2020/12/16 00:42:12;;;;;;;;;;;5.40;99.90;;;;;;5014100;28;19909;-75
2020/12/16 00:44:38;;;;;;;;;;;5.40;99.90;;;;;;5013486;28;19910;-75
2020/12/16 00:47:04;;;;;;;;;;;5.30;99.90;;;;;;5013641;28;19913;-75
2020/12/16 00:49:29;;;;;;;;;;;5.20;99.90;;;;;;5013931;28;19968;-72
2020/12/16 00:51:55;;;;;;;;;;;5.20;99.90;;;;;;5014875;28;19916;-75
2020/12/16 00:54:20;;;;;;;;;;;5.20;99.90;;;;;;5017080;28;19910;-75
2020/12/16 00:56:46;;;;;;;;;;;5.10;99.90;;;;;;5015225;28;19921;-74
2020/12/16 00:59:11;;;;;;;;;;;5.00;99.90;;;;;;5018081;28;20059;-74
2020/12/16 01:01:37;;;;;;;;;;;5.00;99.90;;;;;;5016068;28;19933;-75
2020/12/16 01:04:02;;;;;;;;;;;4.90;99.90;;;;;;5020027;28;20035;-75
2020/12/16 01:06:28;;;;;;;;;;;4.80;99.90;;;;;;5016343;28;19933;-74
2020/12/16 01:08:53;;;;;;;;;;;4.80;99.90;;;;;;5016159;28;19910;-75
2020/12/16 01:11:19;;;;;;;;;;;4.80;99.90;;;;;;5016817;28;19916;-75
2020/12/16 01:13:44;;;;;;;;;;;4.70;99.90;;;;;;5015682;28;19925;-74
2020/12/16 01:16:10;;;;;;;;;;;4.70;99.90;;;;;;5016230;28;20013;-74
2020/12/16 01:18:36;;;;;;;;;;;4.70;99.90;;;;;;5016010;28;19909;-75
2020/12/16 01:21:01;;;;;;;;;;;4.60;99.90;;;;;;5018726;28;20294;-75
2020/12/16 01:23:27;;;;;;;;;;;4.60;99.90;;;;;;5016738;28;19917;-75
2020/12/16 01:25:52;;;;;;;;;;;4.50;99.90;;;;;;5015430;28;19909;-75
2020/12/16 01:28:18;;;;;;;;;;;4.50;99.90;;;;;;5018669;28;20372;-74
2020/12/16 01:30:43;;;;;;;;;;;4.50;99.90;;;;;;5021505;28;20224;-75
2020/12/16 01:33:09;;;;;;;;;;;4.50;99.90;;;;;;5024723;28;19910;-74
2020/12/16 01:35:34;;;;;;;;;;;4.50;99.90;;;;;;5017863;28;19916;-72
2020/12/16 01:38:00;;;;;;;;;;;4.50;99.90;;;;;;5019489;28;19963;-75
2020/12/16 01:40:25;;;;;;;;;;;4.50;99.90;;;;;;5019960;28;19910;-75
2020/12/16 01:42:51;;;;;;;;;;;4.50;99.90;;;;;;5020540;28;19917;-75
2020/12/16 01:45:21;;;;;;;;;;;4.50;99.90;;;;;;5019794;28;19916;-75
2020/12/16 01:47:46;;;;;;;;;;;4.50;99.90;;;;;;5023506;28;19910;-75
2020/12/16 01:50:12;;;;;;;;;;;4.60;99.90;;;;;;5021883;28;19989;-75
2020/12/16 01:52:38;;;;;;;;;;;4.60;99.90;;;;;;5018568;28;19945;-75
2020/12/16 01:55:05;;;;;;;;;;;4.60;99.90;;;;;;5019638;28;20056;-75
2020/12/16 01:57:34;;;;;;;;;;;4.60;99.90;;;;;;5019588;28;20152;-75
2020/12/16 02:00:00;;;;;;;;;;;4.60;99.90;;;;;;5015948;28;20359;-74
2020/12/16 02:02:28;;;;;;;;;;;4.60;99.90;;;;;;5019923;28;19909;-75
2020/12/16 02:04:57;;;;;;;;;;;4.60;99.90;;;;;;5015911;28;19909;-75
2020/12/16 02:07:25;;;;;;;;;;;4.60;99.90;;;;;;5016252;28;19910;-75
2020/12/16 02:09:50;;;;;;;;;;;4.60;99.90;;;;;;5012769;28;19967;-75
2020/12/16 02:12:18;;;;;;;;;;;4.60;99.90;;;;;;5015050;28;19909;-75
2020/12/16 02:14:43;;;;;;;;;;;4.70;99.90;;;;;;5017446;28;19925;-73
2020/12/16 02:17:09;;;;;;;;;;;4.70;99.90;;;;;;5014983;28;19909;-75
2020/12/16 02:19:43;;;;;;;;;;;4.80;99.90;;;;;;5016337;28;19920;-75
2020/12/16 02:22:09;;;;;;;;;;;4.90;99.90;;;;;;5015401;28;19932;-75
2020/12/16 02:24:38;;;;;;;;;;;5.00;99.90;;;;;;5014038;28;19960;-75
2020/12/16 02:27:03;;;;;;;;;;;5.00;99.90;;;;;;5013865;28;20409;-74
2020/12/16 02:29:30;;;;;;;;;;;5.10;99.90;;;;;;5013006;28;19913;-75
2020/12/16 02:31:56;;;;;;;;;;;5.10;99.90;;;;;;5016673;28;20371;-75
2020/12/16 02:34:21;;;;;;;;;;;5.10;99.90;;;;;;5015517;28;19909;-74
2020/12/16 02:36:47;;;;;;;;;;;5.10;99.90;;;;;;5011898;28;19916;-75
2020/12/16 02:39:12;;;;;;;;;;;5.10;99.90;;;;;;5011975;28;19909;-75
2020/12/16 02:41:38;;;;;;;;;;;5.10;99.90;;;;;;5014299;28;19972;-75
2020/12/16 02:44:03;;;;;;;;;;;5.10;99.90;;;;;;5015525;28;19925;-75
2020/12/16 02:46:28;;;;;;;;;;;5.00;99.90;;;;;;5013955;28;19921;-75
2020/12/16 02:48:54;;;;;;;;;;;5.00;99.90;;;;;;5016720;28;20366;-72
2020/12/16 02:51:19;;;;;;;;;;;5.00;99.90;;;;;;5019998;28;19960;-75
2020/12/16 02:53:45;;;;;;;;;;;5.00;99.90;;;;;;5020685;28;20000;-74
2020/12/16 02:56:10;;;;;;;;;;;5.00;99.90;;;;;;5021135;28;20405;-74
2020/12/16 02:58:42;;;;;;;;;;;5.10;99.90;;;;;;5017235;28;19917;-75
2020/12/16 03:01:08;;;;;;;;;;;5.00;99.90;;;;;;5015041;28;20247;-75
2020/12/16 03:03:33;;;;;;;;;;;5.00;99.90;;;;;;5028549;28;19931;-75
2020/12/16 03:05:59;;;;;;;;;;;5.00;99.90;;;;;;5033849;28;19979;-72
2020/12/16 03:08:24;;;;;;;;;;;5.00;99.90;;;;;;5033541;28;19917;-75
2020/12/16 03:10:49;;;;;;;;;;;5.10;99.90;;;;;;5034837;28;20428;-75
2020/12/16 03:13:15;;;;;;;;;;;5.10;99.90;;;;;;5037126;28;19909;-75
2020/12/16 03:15:40;;;;;;;;;;;5.20;99.90;;;;;;5036758;28;19967;-74
2020/12/16 03:18:06;;;;;;;;;;;5.30;99.90;;;;;;5034410;28;20186;-75
2020/12/16 03:20:31;;;;;;;;;;;5.30;99.90;;;;;;5036763;28;19909;-75
2020/12/16 03:22:57;;;;;;;;;;;5.40;99.90;;;;;;5042238;28;20389;-73
2020/12/16 03:25:22;;;;;;;;;;;5.40;99.90;;;;;;5040990;28;20006;-75
2020/12/16 03:27:48;;;;;;;;;;;5.40;99.90;;;;;;5038057;28;19909;-75
2020/12/16 03:30:13;;;;;;;;;;;5.40;99.90;;;;;;5038966;28;20378;-74
2020/12/16 03:32:39;;;;;;;;;;;5.50;99.90;;;;;;5035796;28;19916;-75
2020/12/16 03:35:04;;;;;;;;;;;5.40;99.90;;;;;;5017667;28;19909;-75
2020/12/16 03:37:30;;;;;;;;;;;5.40;99.90;;;;;;5016680;28;19909;-75
2020/12/16 03:39:55;;;;;;;;;;;5.50;99.90;;;;;;5016783;28;19913;-73
2020/12/16 03:42:20;;;;;;;;;;;5.50;99.90;;;;;;5017431;28;19917;-75
2020/12/16 03:44:46;;;;;;;;;;;5.50;99.90;;;;;;5021607;28;19916;-75
2020/12/16 03:47:13;;;;;;;;;;;5.50;99.90;;;;;;5021641;28;20016;-72
2020/12/16 03:49:38;;;;;;;;;;;5.40;99.90;;;;;;5021495;28;19917;-75
2020/12/16 03:52:04;;;;;;;;;;;5.40;99.90;;;;;;5027333;28;19969;-73
2020/12/16 03:54:29;;;;;;;;;;;5.40;99.90;;;;;;5026543;28;19916;-73
2020/12/16 03:56:55;;;;;;;;;;;5.40;99.90;;;;;;5027646;28;19909;-75
2020/12/16 03:59:21;;;;;;;;;;;5.40;99.90;;;;;;5021223;28;19921;-75
2020/12/16 04:01:46;;;;;;;;;;;5.30;99.90;;;;;;5022733;28;19976;-75
2020/12/16 04:04:12;;;;;;;;;;;5.30;99.90;;;;;;5027440;28;19913;-75
2020/12/16 04:06:37;;;;;;;;;;;5.20;99.90;;;;;;5025587;28;20056;-75
2020/12/16 04:09:04;;;;;;;;;;;5.20;99.90;;;;;;5025801;28;20363;-75
2020/12/16 04:11:29;;;;;;;;;;;5.20;99.90;;;;;;5023722;28;20393;-75
2020/12/16 04:13:54;;;;;;;;;;;5.20;99.90;;;;;;5019506;28;19945;-75
2020/12/16 04:16:21;;;;;;;;;;;5.20;99.90;;;;;;5018504;28;20036;-72
2020/12/16 04:18:47;;;;;;;;;;;5.10;99.90;;;;;;5019292;28;19932;-75
2020/12/16 04:21:14;;;;;;;;;;;5.00;99.90;;;;;;5019045;28;19952;-75
2020/12/16 04:23:40;;;;;;;;;;;5.00;99.90;;;;;;5020634;28;19923;-74
2020/12/16 04:26:05;;;;;;;;;;;5.00;99.90;;;;;;5019985;28;19909;-75
2020/12/16 04:28:31;;;;;;;;;;;4.90;99.90;;;;;;5024087;28;19913;-74
2020/12/16 04:30:56;;;;;;;;;;;4.80;99.90;;;;;;5023445;28;19932;-72
2020/12/16 04:33:22;;;;;;;;;;;4.80;99.90;;;;;;5038041;28;20026;-75
2020/12/16 04:35:48;;;;;;;;;;;4.60;99.90;;;;;;5041029;28;19909;-75
2020/12/16 04:38:13;;;;;;;;;;;4.50;99.90;;;;;;5042717;28;19917;-75
2020/12/16 04:40:39;;;;;;;;;;;4.50;99.90;;;;;;5043804;28;19979;-72
2020/12/16 04:43:09;;;;;;;;;;;4.30;99.90;;;;;;5046354;28;19924;-72
2020/12/16 04:45:35;;;;;;;;;;;4.30;99.90;;;;;;5049726;28;19909;-71
2020/12/16 04:48:01;;;;;;;;;;;4.20;99.90;;;;;;5048748;28;19990;-72
2020/12/16 04:50:26;;;;;;;;;;;4.20;99.90;;;;;;5047219;28;19921;-74
2020/12/16 04:52:52;;;;;;;;;;;4.10;99.90;;;;;;5048634;28;19941;-74
2020/12/16 04:55:18;;;;;;;;;;;4.10;99.90;;;;;;5044719;28;19947;-72
2020/12/16 04:57:51;;;;;;;;;;;4.00;99.90;;;;;;5046909;28;19992;-73
2020/12/16 05:00:18;;;;;;;;;;;4.00;99.90;;;;;;5044752;28;20004;-75
2020/12/16 05:02:51;;;;;;;;;;;3.90;99.90;;;;;;5044536;28;19913;-74
2020/12/16 05:05:17;;;;;;;;;;;3.90;99.90;;;;;;5046937;28;19955;-76
2020/12/16 05:07:42;;;;;;;;;;;3.90;99.90;;;;;;5048074;28;19909;-75
2020/12/16 05:10:08;;;;;;;;;;;3.90;99.90;;;;;;5046944;28;19913;-73
2020/12/16 05:12:35;;;;;;;;;;;3.90;99.90;;;;;;5046746;28;20271;-76
2020/12/16 05:15:00;;;;;;;;;;;3.90;99.90;;;;;;5049494;28;19936;-76
2020/12/16 05:17:25;;;;;;;;;;;4.00;99.90;;;;;;5048131;28;19909;-74
2020/12/16 05:19:51;;;;;;;;;;;4.00;99.90;;;;;;5052125;28;19933;-76
2020/12/16 05:22:24;;;;;;;;;;;4.00;99.90;;;;;;5051034;28;19909;-76
2020/12/16 05:24:50;;;;;;;;;;;4.00;99.90;;;;;;5051910;28;19913;-76
2020/12/16 05:27:22;;;;;;;;;;;3.90;99.90;;;;;;5051255;28;19940;-74
2020/12/16 05:29:49;;;;;;;;;;;3.90;99.90;;;;;;5045772;28;19949;-77
2020/12/16 05:32:19;;;;;;;;;;;4.00;99.90;;;;;;5046393;28;19980;-76
2020/12/16 05:34:45;;;;;;;;;;;4.00;99.90;;;;;;5029172;28;19969;-74
2020/12/16 05:37:30;;;;;;;;;;;4.10;99.90;;;;;;5028653;28;20243;-76
2020/12/16 05:40:07;;;;;;;;;;;4.00;99.90;;;;;;5027595;28;19910;-74
2020/12/16 05:42:32;;;;;;;;;;;4.00;99.90;;;;;;5025301;28;19977;-75
2020/12/16 05:44:59;;;;;;;;;;;4.00;99.90;;;;;;5024588;28;20323;-76
2020/12/16 05:47:25;;;;;;;;;;;4.00;99.90;;;;;;5026179;28;19909;-73
2020/12/16 05:49:50;;;;;;;;;;;4.00;99.90;;;;;;5025517;28;19936;-74
2020/12/16 05:52:16;;;;;;;;;;;4.00;99.90;;;;;;5025288;28;19909;-76
2020/12/16 05:54:41;;;;;;;;;;;4.00;99.90;;;;;;5028494;28;19921;-76
2020/12/16 05:57:09;;;;;;;;;;;4.10;99.90;;;;;;5030976;28;19932;-73
2020/12/16 05:59:34;;;;;;;;;;;4.10;99.90;;;;;;5029015;28;20407;-76
2020/12/16 06:02:02;;;;;;;;;;;4.20;99.90;;;;;;5021153;28;19948;-73
2020/12/16 06:04:28;;;;;;;;;;;4.30;99.90;;;;;;5012512;28;19920;-73
2020/12/16 06:06:55;;;;;;;;;;;4.30;99.90;;;;;;5011250;28;19914;-76
2020/12/16 06:09:22;;;;;;;;;;;4.40;99.90;;;;;;5011466;28;20264;-76
2020/12/16 06:11:53;;;;;;;;;;;4.40;99.90;;;;;;5011525;28;19913;-74
2020/12/16 06:14:19;;;;;;;;;;;4.40;99.90;;;;;;5011665;28;19910;-73
2020/12/16 06:16:46;;;;;;;;;;;4.40;99.90;;;;;;5011107;28;19916;-76
2020/12/16 06:19:20;;;;;;;;;;;4.40;99.90;;;;;;5010101;28;20386;-73
2020/12/16 06:21:47;;;;;;;;;;;4.40;99.90;;;;;;5011448;28;20316;-73
2020/12/16 06:24:13;;;;;;;;;;;4.40;99.90;;;;;;5011373;28;19914;-74
2020/12/16 06:26:40;;;;;;;;;;;4.40;99.90;;;;;;5011117;28;19957;-77
2020/12/16 06:29:06;;;;;;;;;;;4.50;99.90;;;;;;5011378;28;19909;-73
2020/12/16 06:31:32;;;;;;;;;;;4.50;99.90;;;;;;5011320;28;19910;-74
2020/12/16 06:34:03;;;;;;;;;;;4.60;99.90;;;;;;5015744;28;20266;-77
2020/12/16 06:36:46;;;;;;;;;;;4.60;99.90;;;;;;5010906;28;20387;-74
2020/12/16 06:39:15;;;;;;;;;;;4.60;99.90;;;;;;5011428;28;19913;-73
2020/12/16 06:41:50;;;;;;;;;;;4.70;99.90;;;;;;5011504;28;19916;-73
2020/12/16 06:44:15;;;;;;;;;;;4.70;99.90;;;;;;5011349;28;19968;-78
2020/12/16 06:46:45;;;;;;;;;;;4.80;99.90;;;;;;5012092;28;19957;-73
2020/12/16 06:49:22;;;;;;;;;;;4.80;99.90;;;;;;5015321;28;19921;-74
2020/12/16 06:51:50;;;;;;;;;;;4.80;99.90;;;;;;5015236;28;19916;-75
2020/12/16 06:54:16;;;;;;;;;;;4.80;99.90;;;;;;5015171;28;19910;-74
2020/12/16 06:56:45;;;;;;;;;;;4.80;99.90;;;;;;5014923;28;19969;-77
2020/12/16 06:59:29;;;;;;;;;;;4.90;99.90;;;;;;5015206;28;19933;-74
2020/12/16 07:02:11;;;;;;;;;;;4.90;99.90;;;;;;5016028;28;19984;-74
2020/12/16 07:04:37;;;;;;;;;;;5.00;99.90;;;;;;5015028;28;20028;-74
2020/12/16 07:07:02;;;;;;;;;;;5.00;99.90;;;;;;5018834;28;20471;-75
2020/12/16 07:09:34;;;;;;;;;;;5.00;99.90;;;;;;5025470;28;19909;-74
2020/12/16 07:12:00;;;;;;;;;;;4.90;99.90;;;;;;5024396;28;19909;-73
2020/12/16 07:14:32;;;;;;;;;;;4.90;99.90;;;;;;5023699;28;20279;-73
2020/12/16 07:17:06;;;;;;;;;;;4.90;99.90;;;;;;5023559;28;20389;-73
2020/12/16 07:19:32;;;;;;;;;;;4.90;99.90;;;;;;5024267;28;19918;-73
2020/12/16 07:22:14;;;;;;;;;;;4.90;99.90;;;;;;5024608;28;19909;-74
2020/12/16 07:24:39;;;;;;;;;;;4.90;99.90;;;;;;5022645;28;19913;-74
2020/12/16 07:27:05;;;;;;;;;;;4.80;99.90;;;;;;5023626;28;19909;-74
2020/12/16 07:29:31;;;;;;;;;;;4.80;99.90;;;;;;5017465;28;19910;-73
2020/12/16 07:32:00;;;;;;;;;;;4.80;99.90;;;;;;5014676;28;19932;-74
2020/12/16 07:34:26;;;;;;;;;;;4.80;99.90;;;;;;5014164;28;19909;-74
2020/12/16 07:36:56;;;;;;;;;;;4.80;99.90;;;;;;5014191;28;19919;-73
2020/12/16 07:39:21;;;;;;;;;;;4.80;99.90;;;;;;5014543;28;19913;-73
2020/12/16 07:41:47;;;;;;;;;;;4.90;99.90;;;;;;5014427;28;20370;-74
2020/12/16 07:44:13;;;;;;;;;;;4.90;99.90;;;;;;5014312;28;19913;-75
2020/12/16 07:46:38;;;;;;;;;;;4.90;99.90;;;;;;5013912;28;19913;-74
2020/12/16 07:49:04;;;;;;;;;;;4.90;99.90;;;;;;5013841;28;19921;-74
2020/12/16 07:51:29;;;;;;;;;;;4.90;99.90;;;;;;5014276;28;19909;-74
2020/12/16 07:53:55;;;;;;;;;;;5.00;99.90;;;;;;5014182;28;19909;-78
2020/12/16 07:56:20;;;;;;;;;;;5.00;99.90;;;;;;5012204;28;20283;-74
2020/12/16 07:58:46;;;;;;;;;;;5.00;99.90;;;;;;5011703;28;20007;-74
2020/12/16 08:01:13;;;;;;;;;;;5.00;99.90;;;;;;5012665;28;19913;-74
2020/12/16 08:03:39;;;;;;;;;;;5.00;99.90;;;;;;5015716;28;19920;-73
2020/12/16 08:06:06;;;;;;;;;;;5.00;99.90;;;;;;5022120;28;19964;-73
2020/12/16 08:08:31;;;;;;;;;;;5.10;99.90;;;;;;5032192;28;20179;-74
2020/12/16 08:10:57;;;;;;;;;;;5.10;99.90;;;;;;5033379;28;19909;-73
2020/12/16 08:13:24;;;;;;;;;;;5.00;99.90;;;;;;5033432;28;19909;-74
2020/12/16 08:15:50;;;;;;;;;;;5.00;99.90;;;;;;5031388;28;19967;-73
2020/12/16 08:18:18;;;;;;;;;;;5.00;99.90;;;;;;5033285;28;19909;-73
2020/12/16 08:20:44;;;;;;;;;;;5.10;99.90;;;;;;5031407;28;19916;-73
2020/12/16 08:23:13;;;;;;;;;;;5.10;99.90;;;;;;5032632;28;19917;-74
2020/12/16 08:25:39;;;;;;;;;;;5.30;99.90;;;;;;5032924;28;19917;-76
2020/12/16 08:28:05;;;;;;;;;;;5.30;99.90;;;;;;5032679;28;19915;-75
2020/12/16 08:30:31;;;;;;;;;;;5.40;99.90;;;;;;5033472;28;19909;-74
2020/12/16 08:33:06;;;;;;;;;;;5.50;99.90;;;;;;5027154;28;19917;-74
2020/12/16 08:35:37;;;;;;;;;;;5.60;99.90;;;;;;5012869;28;20015;-79
2020/12/16 08:38:04;;;;;;;;;;;5.70;99.90;;;;;;5013089;28;19955;-74
2020/12/16 08:40:30;;;;;;;;;;;5.80;99.90;;;;;;5015288;28;19948;-74
2020/12/16 08:42:55;;;;;;;;;;;6.00;99.90;;;;;;5026568;28;19964;-74
2020/12/16 08:45:21;;;;;;;;;;;6.40;99.90;;;;;;5020056;28;20009;-74
2020/12/16 08:47:47;;;;;;;;;;;6.90;99.90;;;;;;5019692;28;19913;-74
2020/12/16 08:50:14;;;;;;;;;;;7.30;99.90;;;;;;5020144;28;20360;-74
2020/12/16 08:52:41;;;;;;;;;;;7.90;99.90;;;;;;5014489;28;19921;-74
2020/12/16 08:55:11;;;;;;;;;;;8.40;99.90;;;;;;5011313;28;19910;-75
2020/12/16 08:57:37;;;;;;;;;;;8.90;99.90;;;;;;5024826;28;19919;-76
2020/12/16 09:00:07;;;;;;;;;;;9.40;99.90;;;;;;5014715;28;20031;-74
2020/12/16 09:02:32;;;;;;;;;;;9.70;99.90;;;;;;5022164;28;19913;-74
2020/12/16 09:04:58;;;;;;;;;;;9.90;99.90;;;;;;5010483;28;19910;-74
2020/12/16 09:07:24;;;;;;;;;;;10.00;99.90;;;;;;5012305;28;20088;-74
2020/12/16 09:09:50;;;;;;;;;;;10.30;99.90;;;;;;5014898;28;20255;-76
2020/12/16 09:12:16;;;;;;;;;;;10.90;99.90;;;;;;5022251;28;19916;-75
2020/12/16 09:14:48;;;;;;;;;;;11.60;99.90;;;;;;5016970;28;20407;-74
2020/12/16 09:17:14;;;;;;;;;;;12.30;99.90;;;;;;5016213;28;19916;-75
2020/12/16 09:19:39;;;;;;;;;;;13.00;99.90;;;;;;5019204;28;19909;-74
2020/12/16 09:22:05;;;;;;;;;;;13.60;99.90;;;;;;5024401;28;19909;-78
2020/12/16 09:24:31;;;;;;;;;;;14.10;99.90;;;;;;5010721;28;20526;-78
2020/12/16 09:26:59;;;;;;;;;;;14.50;99.90;;;;;;5022743;28;19910;-74
2020/12/16 09:29:24;;;;;;;;;;;14.90;99.90;;;;;;5019188;28;19916;-74
2020/12/16 09:31:52;;;;;;;;;;;15.30;99.90;;;;;;5023494;28;19909;-75
2020/12/16 09:34:18;;;;;;;;;;;15.50;99.90;;;;;;5021212;28;19914;-75
2020/12/16 09:36:44;;;;;;;;;;;15.70;99.90;;;;;;5008255;28;20458;-75
2020/12/16 09:39:10;;;;;;;;;;;15.90;99.90;;;;;;5018104;28;19936;-75
2020/12/16 09:41:49;;;;;;;;;;;16.00;99.90;;;;;;5008653;28;19961;-78
2020/12/16 09:44:24;;;;;;;;;;;16.00;99.90;;;;;;5008953;28;19921;-75
2020/12/16 09:46:50;;;;;;;;;;;16.00;99.90;;;;;;5015765;28;20401;-76
2020/12/16 09:49:17;;;;;;;;;;;15.90;99.90;;;;;;5013023;28;19952;-75
2020/12/16 09:51:43;;;;;;;;;;;15.60;99.90;;;;;;5008696;28;20355;-75
2020/12/16 09:54:08;;;;;;;;;;;15.60;99.90;;;;;;5018928;28;19912;-75
2020/12/16 09:56:34;;;;;;;;;;;15.50;99.90;;;;;;5019231;28;20374;-75
2020/12/16 09:58:59;;;;;;;;;;;15.40;99.90;;;;;;5010178;28;19916;-74
2020/12/16 10:01:25;;;;;;;;;;;15.30;99.90;;;;;;5022833;28;19909;-75
2020/12/16 10:03:50;;;;;;;;;;;15.20;99.90;;;;;;5012097;28;19913;-75
2020/12/16 10:06:17;;;;;;;;;;;15.10;99.90;;;;;;5017875;28;19913;-75
2020/12/16 10:08:43;;;;;;;;;;;14.90;99.90;;;;;;5030560;28;19913;-79
2020/12/16 10:11:12;;;;;;;;;;;14.90;99.90;;;;;;5011209;28;20370;-74
2020/12/16 10:13:38;;;;;;;;;;;14.80;99.90;;;;;;5030349;28;20362;-75
2020/12/16 10:16:04;;;;;;;;;;;14.60;99.90;;;;;;5029194;28;19916;-74
2020/12/16 10:18:30;;;;;;;;;;;14.60;99.90;;;;;;5029582;28;19913;-75
2020/12/16 10:20:55;;;;;;;;;;;14.50;99.90;;;;;;5029751;28;19921;-75
2020/12/16 10:23:21;;;;;;;;;;;14.40;99.90;;;;;;5030711;28;20069;-77
2020/12/16 10:25:46;;;;;;;;;;;14.30;99.90;;;;;;5030830;28;20390;-75
2020/12/16 10:28:12;;;;;;;;;;;14.10;99.90;;;;;;5031534;28;20010;-75
2020/12/16 10:30:38;;;;;;;;;;;14.00;99.90;;;;;;5029901;28;19909;-75
2020/12/16 10:33:04;;;;;;;;;;;13.90;99.90;;;;;;5029514;28;19909;-75
2020/12/16 10:35:29;;;;;;;;;;;13.80;99.90;;;;;;5030014;28;19925;-75
2020/12/16 10:37:55;;;;;;;;;;;13.90;99.90;;;;;;5030553;28;19910;-77
2020/12/16 10:40:20;;;;;;;;;;;13.70;99.90;;;;;;5030611;28;19909;-74
2020/12/16 10:42:46;;;;;;;;;;;13.60;99.90;;;;;;5026228;28;19909;-75
2020/12/16 10:45:12;;;;;;;;;;;13.60;99.90;;;;;;5026036;28;20004;-75
2020/12/16 10:47:38;;;;;;;;;;;13.50;99.90;;;;;;5030428;28;19909;-78
2020/12/16 10:50:03;;;;;;;;;;;13.40;99.90;;;;;;5029593;28;19926;-76
2020/12/16 10:52:29;;;;;;;;;;;13.40;99.90;;;;;;5030926;28;19913;-75
2020/12/16 10:54:54;;;;;;;;;;;13.30;99.90;;;;;;5031007;28;19955;-75
2020/12/16 10:57:20;;;;;;;;;;;13.30;99.90;;;;;;5030669;28;19917;-75
2020/12/16 10:59:47;;;;;;;;;;;13.30;99.90;;;;;;5030890;28;19955;-74
2020/12/16 11:02:12;;;;;;;;;;;13.30;99.90;;;;;;5030782;28;20353;-74
2020/12/16 11:04:38;;;;;;;;;;;13.20;99.90;;;;;;5030657;28;19976;-75
2020/12/16 11:07:03;;;;;;;;;;;12.90;99.90;;;;;;5022512;28;19909;-80
2020/12/16 11:09:29;;;;;;;;;;;12.70;99.90;;;;;;5019805;28;19913;-75
2020/12/16 11:11:54;;;;;;;;;;;12.50;99.90;;;;;;5030611;28;21927;-75
2020/12/16 11:14:20;;;;;;;;;;;12.40;99.90;;;;;;5014715;28;19971;-75
2020/12/16 11:16:46;;;;;;;;;;;12.10;99.90;;;;;;5030814;28;19916;-78
2020/12/16 11:19:13;;;;;;;;;;;12.00;99.90;;;;;;5030790;28;20000;-77
2020/12/16 11:21:39;;;;;;;;;;;11.80;99.90;;;;;;5031006;28;19909;-74
2020/12/16 11:24:05;;;;;;;;;;;11.60;99.90;;;;;;5029531;28;20000;-74
2020/12/16 11:26:34;;;;;;;;;;;11.40;99.90;;;;;;5030195;28;20428;-74
2020/12/16 11:29:00;;;;;;;;;;;11.30;99.90;;;;;;5030914;28;20103;-74
2020/12/16 11:31:25;;;;;;;;;;;11.20;99.90;;;;;;5030965;28;19910;-74
2020/12/16 11:33:50;;;;;;;;;;;11.20;99.90;;;;;;5030236;28;19992;-74
2020/12/16 11:36:16;;;;;;;;;;;11.00;99.90;;;;;;5034147;28;20007;-74
2020/12/16 11:38:41;;;;;;;;;;;10.90;99.90;;;;;;5034404;28;20270;-74
2020/12/16 11:41:07;;;;;;;;;;;10.80;99.90;;;;;;5034158;28;19963;-74
2020/12/16 11:43:32;;;;;;;;;;;10.70;99.90;;;;;;5032272;28;20003;-77
2020/12/16 11:45:58;;;;;;;;;;;10.70;99.90;;;;;;5033388;28;20596;-75
2020/12/16 11:48:23;;;;;;;;;;;10.70;99.90;;;;;;5033802;28;19916;-74
2020/12/16 11:50:49;;;;;;;;;;;10.70;99.90;;;;;;5033753;28;19917;-75
2020/12/16 11:53:14;;;;;;;;;;;10.60;99.90;;;;;;5033715;28;19915;-78
2020/12/16 11:55:40;;;;;;;;;;;10.60;99.90;;;;;;5032122;28;20366;-74
2020/12/16 11:58:06;;;;;;;;;;;10.60;99.90;;;;;;5033940;28;19952;-74
2020/12/16 12:00:31;;;;;;;;;;;10.60;99.90;;;;;;5033670;28;19913;-74
2020/12/16 12:02:57;;;;;;;;;;;10.60;99.90;;;;;;5033331;28;19917;-77
2020/12/16 12:05:22;;;;;;;;;;;10.50;99.90;;;;;;5029027;28;19916;-74
2020/12/16 12:07:48;;;;;;;;;;;10.50;99.90;;;;;;5017925;28;20425;-74
2020/12/16 12:10:13;;;;;;;;;;;10.60;99.90;;;;;;5016285;28;19910;-79
2020/12/16 12:12:39;;;;;;;;;;;10.60;99.90;;;;;;5020407;28;20378;-74
2020/12/16 12:15:04;;;;;;;;;;;10.60;99.90;;;;;;5014400;28;19996;-74
2020/12/16 12:17:30;;;;;;;;;;;10.60;99.90;;;;;;5026172;28;19913;-74
2020/12/16 12:19:55;;;;;;;;;;;10.60;99.90;;;;;;5014173;28;19917;-77
2020/12/16 12:22:21;;;;;;;;;;;10.60;99.90;;;;;;5026893;28;20140;-74
2020/12/16 12:24:46;;;;;;;;;;;10.60;99.90;;;;;;5029447;28;19967;-74
2020/12/16 12:27:12;;;;;;;;;;;10.70;99.90;;;;;;5024182;28;20329;-74
2020/12/16 12:29:37;;;;;;;;;;;10.70;99.90;;;;;;5010649;28;20000;-78
2020/12/16 12:32:03;;;;;;;;;;;10.70;99.90;;;;;;5021487;28;19992;-74
2020/12/16 12:34:28;;;;;;;;;;;10.70;99.90;;;;;;5010667;28;19914;-74
2020/12/16 12:36:54;;;;;;;;;;;10.70;99.90;;;;;;5020080;28;20055;-76
2020/12/16 12:39:19;;;;;;;;;;;10.70;99.90;;;;;;5023069;28;20299;-74
2020/12/16 12:41:45;;;;;;;;;;;10.80;99.90;;;;;;5026730;28;19999;-74
2020/12/16 12:44:11;;;;;;;;;;;10.80;99.90;;;;;;5018372;28;20409;-74
2020/12/16 12:46:37;;;;;;;;;;;10.80;99.90;;;;;;5009242;28;19910;-74
2020/12/16 12:49:02;;;;;;;;;;;10.90;99.90;;;;;;5011177;28;20000;-74
2020/12/16 12:51:29;;;;;;;;;;;10.90;99.90;;;;;;5020289;28;20288;-74
2020/12/16 12:53:56;;;;;;;;;;;10.90;99.90;;;;;;5007940;28;19917;-74
2020/12/16 12:56:22;;;;;;;;;;;10.90;99.90;;;;;;5023706;28;19917;-74
2020/12/16 12:58:48;;;;;;;;;;;10.90;99.90;;;;;;5010723;28;19910;-74
2020/12/16 13:01:13;;;;;;;;;;;10.90;99.90;;;;;;5029042;28;20288;-74
2020/12/16 13:03:39;;;;;;;;;;;11.00;99.90;;;;;;5027358;28;19967;-74
2020/12/16 13:06:07;;;;;;;;;;;10.90;99.90;;;;;;5030573;28;20397;-75
2020/12/16 13:08:32;;;;;;;;;;;11.00;99.90;;;;;;5019961;28;19924;-77
2020/12/16 13:10:58;;;;;;;;;;;10.90;99.90;;;;;;5012353;28;19909;-74
2020/12/16 13:13:24;;;;;;;;;;;11.00;99.90;;;;;;5022911;28;20007;-74
2020/12/16 13:15:50;;;;;;;;;;;11.00;99.90;;;;;;5013852;28;19910;-74
2020/12/16 13:18:15;;;;;;;;;;;10.90;99.90;;;;;;5007093;28;20473;-74
2020/12/16 13:20:41;;;;;;;;;;;10.90;99.90;;;;;;5024163;28;19913;-76
2020/12/16 13:23:06;;;;;;;;;;;10.90;99.90;;;;;;5032266;28;19913;-74
2020/12/16 13:25:32;;;;;;;;;;;10.90;99.90;;;;;;5030773;28;19968;-79
2020/12/16 13:27:57;;;;;;;;;;;10.90;99.90;;;;;;5030438;28;19958;-74
2020/12/16 13:30:23;;;;;;;;;;;10.90;99.90;;;;;;5031845;28;19916;-74
2020/12/16 13:32:48;;;;;;;;;;;10.90;99.90;;;;;;5031703;28;19932;-79
2020/12/16 13:35:14;;;;;;;;;;;10.90;99.90;;;;;;5009912;28;19945;-76
2020/12/16 13:37:39;;;;;;;;;;;10.90;99.90;;;;;;5011594;28;19916;-77
2020/12/16 13:40:05;;;;;;;;;;;10.90;99.90;;;;;;5012219;28;19999;-74
2020/12/16 13:42:30;;;;;;;;;;;10.80;99.90;;;;;;5018928;28;19909;-74
2020/12/16 13:44:55;;;;;;;;;;;10.90;99.90;;;;;;5010449;28;19918;-75
2020/12/16 13:47:21;;;;;;;;;;;10.80;99.90;;;;;;5007581;28;19913;-74
2020/12/16 13:49:46;;;;;;;;;;;10.80;99.90;;;;;;5013815;28;19967;-74
2020/12/16 13:52:31;;;;;;;;;;;10.80;99.90;;;;;;4981128;28;20845;-74
2020/12/16 13:54:56;;;;;;;;;;;10.80;99.90;;;;;;5018136;28;19909;-74
2020/12/16 13:57:22;;;;;;;;;;;10.80;99.90;;;;;;5018173;28;20289;-75
2020/12/16 13:59:47;;;;;;;;;;;10.80;99.90;;;;;;5011279;28;20354;-74
2020/12/16 14:02:13;;;;;;;;;;;10.70;99.90;;;;;;5012921;28;19921;-74
2020/12/16 14:04:38;;;;;;;;;;;10.70;99.90;;;;;;5026378;28;19917;-74
2020/12/16 14:07:06;;;;;;;;;;;10.70;99.90;;;;;;5015352;28;19909;-78
2020/12/16 14:09:32;;;;;;;;;;;10.70;99.90;;;;;;5010380;28;19917;-74
2020/12/16 14:11:57;;;;;;;;;;;10.60;99.90;;;;;;5024602;28;19909;-74
2020/12/16 14:14:23;;;;;;;;;;;10.60;99.90;;;;;;5020115;28;19909;-74
2020/12/16 14:16:51;;;;;;;;;;;10.60;99.90;;;;;;5023015;28;19917;-74
2020/12/16 14:19:16;;;;;;;;;;;10.60;99.90;;;;;;5012450;28;19932;-75
2020/12/16 14:21:42;;;;;;;;;;;10.60;99.90;;;;;;5018768;28;20417;-74